< Typhoon 197103 1971 Season Typhoon 197105 >
Typhoon 197104 (WANDA)
General InformationTrack Information on Google Maps || Disaster Info.ResourceGoogle EarthGE AnimationAtom FeedGeoJSON
Detalied Best Track (Time Zone = UTC)
Year Month Day Hour Lat. Long. Pressure (hPa) Wind (kt) Class Image Chart
1971 4 22 00 11.4 131.0 1006 0 2 -- Chart
1971 4 22 06 11.5 130.3 1002 0 2 -- Chart
1971 4 22 12 11.7 129.6 1002 0 2 -- Chart
1971 4 22 18 11.9 128.9 1002 0 2 -- Chart
1971 4 23 00 12.1 128.3 1000 0 2 -- Chart
1971 4 23 06 12.2 127.2 994 0 9 -- Chart
1971 4 23 12 12.3 126.3 992 0 9 -- Chart
1971 4 23 18 12.1 125.7 994 0 9 -- Chart
1971 4 24 00 11.4 125.6 994 0 9 -- Chart
1971 4 24 06 11.0 125.0 994 0 9 -- Chart
1971 4 24 12 11.0 124.1 994 0 9 -- Chart
1971 4 24 18 10.9 123.7 994 0 9 -- Chart
1971 4 25 00 10.7 122.7 994 0 9 -- Chart
1971 4 25 06 10.6 121.8 994 0 9 -- Chart
1971 4 25 12 10.6 121.0 990 0 9 -- Chart
1971 4 25 18 10.4 120.4 985 0 9 -- Chart
1971 4 26 00 10.4 119.8 990 0 9 -- Chart
1971 4 26 06 10.3 119.2 990 0 9 -- Chart
1971 4 26 12 10.5 118.5 990 0 9 -- Chart
1971 4 26 18 10.5 117.8 992 0 9 -- Chart
1971 4 27 00 10.3 117.3 994 0 9 -- Chart
1971 4 27 06 10.2 116.9 995 0 2 -- Chart
1971 4 27 12 10.1 116.5 995 0 2 -- Chart
1971 4 27 18 10.3 116.1 1000 0 2 -- Chart
1971 4 28 00 10.5 115.7 1000 0 2 -- Chart
1971 4 28 06 10.5 115.0 1000 0 2 -- Chart
1971 4 28 12 10.7 114.4 1002 0 2 -- Chart
1971 4 28 18 10.7 114.3 1000 0 2 -- Chart
1971 4 29 00 10.8 114.0 1000 0 2 -- Chart
1971 4 29 06 11.3 113.3 1000 0 2 -- Chart
1971 4 29 12 11.7 112.5 1000 0 9 -- Chart
1971 4 29 18 12.0 111.9 998 0 9 -- Chart
1971 4 30 00 12.3 111.4 998 0 9 -- Chart
1971 4 30 06 12.5 111.1 995 0 9 -- Chart
1971 4 30 12 12.7 110.7 995 0 9 -- Chart
1971 4 30 18 13.2 110.5 985 0 9 -- Chart
1971 5 1 00 13.6 110.0 985 0 9 -- Chart
1971 5 1 06 13.9 109.7 985 0 9 -- Chart
1971 5 1 12 14.4 109.5 980 0 9 -- Chart
1971 5 1 18 14.7 109.3 980 0 9 -- Chart
1971 5 2 00 15.4 108.9 985 0 9 -- Chart
1971 5 2 06 16.1 108.8 985 0 9 -- Chart
1971 5 2 12 16.9 108.9 990 0 9 -- Chart
1971 5 2 18 17.8 108.7 990 0 9 -- Chart
1971 5 3 00 18.3 108.8 996 0 9 -- Chart
1971 5 3 06 18.9 109.0 998 0 9 -- Chart
1971 5 3 12 19.5 109.2 1000 0 2 -- Chart
1971 5 3 18 20.0 109.6 1000 0 2 -- Chart
1971 5 4 00 20.7 110.1 1004 0 2 -- Chart
1971 5 4 06 21.0 111.2 1004 0 2 -- Chart
1971 5 4 12 21.0 112.5 1004 0 2 -- Chart
1971 5 4 18 21.0 114.0 1006 0 2 -- Chart
1971 5 5 00 21.0 115.0 1006 0 2 -- Chart
Japan Meteorological Agency Best Track Data | Correction Date : 1990-10-17
< Typhoon 197103 1971 Season Typhoon 197105 >

Help